Time;durP1;ratioP1;P1;durP2;ratioP2;P2;SDS_P1;SDS_P2;PMS_P1;PMS_P2;Temp;Humidity;BMP_temperature;BMP_pressure;BME280_temperature;BME280_humidity;BME280_pressure;Samples;Min_cycle;Max_cycle;Signal;HPM_P1;HPM_P2
2021/04/27 00:01:22;;;;;;;4.90;3.10;;;;;;;6.92;44.85;100077.78;5087961;28;20052;-79
2021/04/27 00:03:48;;;;;;;4.40;2.70;;;;;;;6.96;45.00;100082.88;5085387;28;20113;-80
2021/04/27 00:06:15;;;;;;;4.07;3.20;;;;;;;6.91;45.35;100076.94;5077974;28;20048;-80
2021/04/27 00:08:42;;;;;;;4.13;2.95;;;;;;;6.96;45.40;100077.59;5074818;28;20044;-80
2021/04/27 00:11:08;;;;;;;4.88;2.83;;;;;;;6.93;45.32;100076.84;5073456;28;20105;-80
2021/04/27 00:13:39;;;;;;;3.53;2.80;;;;;;;6.93;45.76;100082.13;5079417;28;20048;-80
2021/04/27 00:16:08;;;;;;;5.60;3.25;;;;;;;6.94;45.27;100073.31;5079220;28;20494;-80
2021/04/27 00:18:34;;;;;;;5.60;3.22;;;;;;;6.91;45.12;100069.03;5075557;28;20388;-80
2021/04/27 00:21:00;;;;;;;4.43;2.92;;;;;;;6.88;45.62;100060.38;5077720;28;20052;-80
2021/04/27 00:23:27;;;;;;;3.30;3.00;;;;;;;6.92;45.43;100070.75;5072107;28;20482;-81
2021/04/27 00:25:53;;;;;;;6.57;3.20;;;;;;;6.91;45.33;100070.81;5078935;28;20079;-80
2021/04/27 00:28:19;;;;;;;4.03;3.08;;;;;;;6.89;45.10;100070.00;5079796;28;20078;-80
2021/04/27 00:30:45;;;;;;;5.63;3.22;;;;;;;6.87;45.46;100062.16;5091420;28;20104;-80
2021/04/27 00:33:12;;;;;;;5.80;2.40;;;;;;;6.80;45.56;100059.81;5088349;28;20052;-80
2021/04/27 00:35:38;;;;;;;4.68;2.65;;;;;;;6.81;45.69;100058.88;5082332;28;20102;-80
2021/04/27 00:38:04;;;;;;;4.03;2.75;;;;;;;6.81;46.03;100061.53;5091756;28;20060;-80
2021/04/27 00:40:32;;;;;;;3.58;2.70;;;;;;;6.81;45.60;100051.00;5091727;28;20052;-79
2021/04/27 00:42:59;;;;;;;4.30;2.83;;;;;;;6.75;45.82;100046.84;5074207;28;20052;-80
2021/04/27 00:45:29;;;;;;;4.13;2.50;;;;;;;6.76;45.91;100050.31;5086883;28;20095;-79
2021/04/27 00:47:57;;;;;;;6.03;3.27;;;;;;;6.75;45.66;100045.97;5079539;28;20059;-80
2021/04/27 00:50:32;;;;;;;4.30;2.92;;;;;;;6.65;45.72;100051.56;5083424;28;20080;-80
2021/04/27 00:53:00;;;;;;;4.40;2.80;;;;;;;6.60;46.20;100047.41;5080536;28;20048;-80
2021/04/27 00:55:29;;;;;;;3.72;2.60;;;;;;;6.54;46.09;100040.56;5065616;28;20149;-80
2021/04/27 00:57:59;;;;;;;5.03;2.90;;;;;;;6.49;46.58;100034.59;5080871;28;20044;-80
2021/04/27 01:00:31;;;;;;;6.93;3.00;;;;;;;6.46;46.40;100034.72;5083023;28;20098;-80
2021/04/27 01:02:59;;;;;;;3.25;2.63;;;;;;;6.44;46.33;100031.31;5078422;28;20072;-80
2021/04/27 01:05:30;;;;;;;9.02;3.05;;;;;;;6.37;46.08;100029.78;5076318;28;20061;-80
2021/04/27 01:08:19;;;;;;;6.13;2.92;;;;;;;6.37;46.83;100031.56;5066419;28;20052;-81
2021/04/27 01:11:03;;;;;;;4.20;2.92;;;;;;;6.36;46.40;100028.06;5081799;28;20106;-81
2021/04/27 01:13:48;;;;;;;6.35;3.00;;;;;;;6.33;46.41;100028.19;5082418;28;20863;-81
2021/04/27 01:16:17;;;;;;;2.90;2.60;;;;;;;6.32;46.21;100024.69;5078841;28;20446;-80
2021/04/27 01:18:48;;;;;;;3.20;2.70;;;;;;;6.27;46.39;100013.50;5080131;28;20044;-80
2021/04/27 01:21:16;;;;;;;3.30;2.58;;;;;;;6.28;46.98;100019.63;5079457;28;20040;-80
2021/04/27 01:24:03;;;;;;;6.60;2.70;;;;;;;6.27;46.76;100017.91;5080889;28;20052;-80
2021/04/27 01:26:38;;;;;;;3.67;2.45;;;;;;;6.32;46.35;100019.44;5079258;28;22136;-80
2021/04/27 01:29:08;;;;;;;7.28;3.17;;;;;;;6.31;46.43;100022.09;5080423;28;20056;-80
2021/04/27 01:31:38;;;;;;;4.68;2.95;;;;;;;6.23;46.76;100016.28;5064732;28;20072;-81
2021/04/27 01:34:06;;;;;;;5.07;2.70;;;;;;;6.24;46.75;100018.84;5065053;28;20430;-80
2021/04/27 01:36:34;;;;;;;6.70;3.10;;;;;;;6.26;46.48;100022.28;5101879;28;20509;-80
2021/04/27 01:39:00;;;;;;;3.83;2.40;;;;;;;6.28;46.60;100022.25;5087583;28;20089;-79
2021/04/27 01:41:27;;;;;;;4.38;2.60;;;;;;;6.21;46.65;100015.47;5082496;28;20558;-80
2021/04/27 01:43:56;;;;;;;7.32;2.90;;;;;;;6.23;47.05;100016.28;5084152;28;20056;-80
2021/04/27 01:46:23;;;;;;;6.55;2.60;;;;;;;6.24;47.15;100015.38;5088009;28;20060;-79
2021/04/27 01:48:51;;;;;;;3.20;2.47;;;;;;;6.20;46.99;100013.75;5082056;28;20112;-80
2021/04/27 01:51:22;;;;;;;4.28;2.65;;;;;;;6.12;46.86;100007.91;5079345;28;20049;-80
2021/04/27 01:53:49;;;;;;;3.17;2.60;;;;;;;6.12;46.66;100008.78;5089348;28;20060;-79
2021/04/27 01:56:15;;;;;;;4.38;2.40;;;;;;;6.09;47.07;100011.50;5086536;28;20064;-80
2021/04/27 01:58:44;;;;;;;3.28;2.35;;;;;;;6.04;47.38;100009.94;5080468;28;20052;-79
2021/04/27 02:01:10;;;;;;;6.18;2.90;;;;;;;5.97;47.15;100007.53;5079831;28;20092;-80
2021/04/27 02:03:41;;;;;;;4.68;2.70;;;;;;;5.97;47.40;100010.16;5076973;28;20135;-79
2021/04/27 02:06:11;;;;;;;3.30;2.28;;;;;;;5.97;47.72;100009.31;5084039;28;20051;-80
2021/04/27 02:08:39;;;;;;;5.22;2.50;;;;;;;5.92;47.56;99996.31;5080142;28;20471;-80
2021/04/27 02:11:06;;;;;;;5.82;2.70;;;;;;;5.92;48.04;100004.19;5078387;28;20064;-80
2021/04/27 02:13:33;;;;;;;6.88;2.47;;;;;;;5.89;48.03;100001.66;5088198;28;20159;-80
2021/04/27 02:16:00;;;;;;;5.50;2.42;;;;;;;5.90;47.78;99998.13;5082305;28;20049;-79
2021/04/27 02:18:43;;;;;;;4.07;2.53;;;;;;;5.89;48.08;99996.41;5074712;28;20056;-80
2021/04/27 02:21:12;;;;;;;3.95;2.60;;;;;;;5.91;47.25;99996.38;5087411;28;20087;-80
2021/04/27 02:23:41;;;;;;;5.13;2.55;;;;;;;5.87;47.73;99998.19;5084392;28;20124;-79
2021/04/27 02:26:10;;;;;;;5.93;2.17;;;;;;;5.83;47.71;100001.84;5074265;28;20733;-80
2021/04/27 02:28:37;;;;;;;5.35;2.40;;;;;;;5.83;47.66;99996.59;5059714;28;20120;-80
2021/04/27 02:31:03;;;;;;;6.15;2.75;;;;;;;5.81;47.93;99998.44;5077438;28;20052;-80
2021/04/27 02:33:30;;;;;;;4.82;2.38;;;;;;;5.83;47.75;99999.22;5072680;28;20048;-80
2021/04/27 02:35:58;;;;;;;3.50;2.28;;;;;;;5.79;47.70;99989.72;5075680;28;20052;-80
2021/04/27 02:38:25;;;;;;;4.70;2.70;;;;;;;5.77;47.67;99994.19;5074505;28;20174;-81
2021/04/27 02:40:52;;;;;;;4.50;2.67;;;;;;;5.70;47.53;99978.66;5056815;28;20079;-79
2021/04/27 02:43:20;;;;;;;4.63;2.42;;;;;;;5.72;47.71;99975.06;5065132;28;20078;-78
2021/04/27 02:45:47;;;;;;;3.75;2.70;;;;;;;5.76;48.11;99984.56;5088990;28;20763;-80
2021/04/27 02:48:18;;;;;;;3.70;2.60;;;;;;;5.75;47.65;99982.00;5086114;28;20051;-80
2021/04/27 02:50:48;;;;;;;3.72;2.67;;;;;;;5.76;47.61;99988.97;5071918;28;20052;-80
2021/04/27 02:53:18;;;;;;;3.70;2.90;;;;;;;5.71;48.42;99981.25;5080776;28;20124;-81
2021/04/27 02:55:45;;;;;;;5.47;2.63;;;;;;;5.67;47.89;99982.25;5065903;28;20132;-81
2021/04/27 02:58:11;;;;;;;5.82;2.55;;;;;;;5.65;47.96;99978.84;5076426;28;20550;-81
2021/04/27 03:00:39;;;;;;;6.60;2.95;;;;;;;5.62;48.35;99978.94;5079258;28;20128;-79
2021/04/27 03:03:06;;;;;;;3.13;2.50;;;;;;;5.51;48.31;99963.50;5079794;28;20056;-81
2021/04/27 03:05:35;;;;;;;5.45;2.40;;;;;;;5.52;48.92;99969.63;5078755;28;20104;-79
2021/04/27 03:08:06;;;;;;;4.60;2.72;;;;;;;5.49;48.65;99975.84;5076165;28;20487;-79
2021/04/27 03:10:34;;;;;;;4.90;2.75;;;;;;;5.45;48.95;99962.88;5078433;28;20049;-79
2021/04/27 03:13:00;;;;;;;6.63;3.00;;;;;;;5.45;48.22;99968.97;5071840;28;20111;-79
2021/04/27 03:15:27;;;;;;;3.60;2.88;;;;;;;5.39;48.98;99966.53;5076918;28;20055;-79
2021/04/27 03:17:53;;;;;;;3.45;2.85;;;;;;;5.36;49.28;99974.50;5079083;28;20125;-81
2021/04/27 03:20:19;;;;;;;6.47;2.95;;;;;;;5.33;49.13;99969.38;5072481;28;20035;-79
2021/04/27 03:22:46;;;;;;;3.92;2.90;;;;;;;5.28;49.37;99972.16;5091554;28;20071;-79
2021/04/27 03:25:15;;;;;;;6.22;2.83;;;;;;;5.25;49.47;99971.38;5089988;28;20040;-79
2021/04/27 03:27:41;;;;;;;4.78;2.80;;;;;;;5.26;49.48;99967.84;5087711;28;20040;-79
2021/04/27 03:30:12;;;;;;;3.53;2.63;;;;;;;5.23;49.35;99970.56;5089736;28;20100;-79
2021/04/27 03:32:39;;;;;;;3.28;2.67;;;;;;;5.16;49.42;99958.56;5090638;28;20044;-79
2021/04/27 03:35:09;;;;;;;6.30;2.70;;;;;;;5.10;49.82;99950.88;5089203;28;20049;-79
2021/04/27 03:37:37;;;;;;;5.28;2.67;;;;;;;5.06;50.26;99952.72;5092151;28;20048;-79
2021/04/27 03:40:05;;;;;;;4.70;2.58;;;;;;;5.08;50.76;99952.69;5093633;28;20041;-80
2021/04/27 03:42:32;;;;;;;4.80;2.80;;;;;;;5.07;50.08;99954.44;5088207;28;20089;-78
2021/04/27 03:45:00;;;;;;;3.60;2.70;;;;;;;5.06;50.67;99957.97;5085516;28;20028;-78
2021/04/27 03:47:26;;;;;;;3.88;2.45;;;;;;;5.04;50.10;99957.16;5069498;28;20048;-81
2021/04/27 03:49:54;;;;;;;5.50;3.00;;;;;;;5.00;49.93;99954.72;5076917;28;20064;-80
2021/04/27 03:52:21;;;;;;;5.15;2.70;;;;;;;5.01;50.81;99951.19;5093542;28;20070;-80
2021/04/27 03:54:47;;;;;;;7.75;3.13;;;;;;;5.04;50.07;99951.91;5078048;28;20076;-80
2021/04/27 03:57:14;;;;;;;4.35;2.95;;;;;;;5.05;49.94;99952.78;5092086;28;20048;-79
2021/04/27 03:59:41;;;;;;;4.60;3.10;;;;;;;5.03;50.11;99959.88;5093275;28;20041;-79
2021/04/27 04:02:07;;;;;;;4.55;2.90;;;;;;;4.98;50.40;99951.28;5093624;28;20060;-79
2021/04/27 04:04:33;;;;;;;8.00;2.67;;;;;;;4.97;50.11;99952.16;5094498;28;20054;-79
2021/04/27 04:07:00;;;;;;;5.72;2.72;;;;;;;4.96;50.24;99953.09;5076337;28;20064;-79
2021/04/27 04:09:26;;;;;;;4.70;3.10;;;;;;;4.95;50.21;99952.22;5101302;28;20082;-77
2021/04/27 04:11:52;;;;;;;4.28;3.10;;;;;;;4.87;50.66;99946.38;5091888;28;20036;-79
2021/04/27 04:14:21;;;;;;;9.02;3.15;;;;;;;4.87;50.46;99959.47;5093235;28;20056;-79
2021/04/27 04:16:47;;;;;;;4.65;2.80;;;;;;;4.86;50.76;99948.13;5072766;28;20045;-80
2021/04/27 04:19:13;;;;;;;3.50;2.50;;;;;;;4.89;50.60;99952.41;5089936;28;20041;-80
2021/04/27 04:21:43;;;;;;;7.35;3.00;;;;;;;4.89;50.88;99952.41;5092523;28;20032;-80
2021/04/27 04:24:10;;;;;;;3.20;2.83;;;;;;;4.90;50.87;99951.50;5093261;28;20044;-81
2021/04/27 04:26:38;;;;;;;6.45;2.78;;;;;;;4.92;50.13;99952.31;5094324;28;20048;-80
2021/04/27 04:29:05;;;;;;;4.82;3.13;;;;;;;4.91;50.80;99947.97;5087274;28;20044;-81
2021/04/27 04:31:32;;;;;;;6.45;2.83;;;;;;;4.93;51.37;99960.13;5082785;28;20045;-81
2021/04/27 04:33:59;;;;;;;7.47;3.67;;;;;;;4.84;51.06;99944.69;5070810;28;20047;-81
2021/04/27 04:36:25;;;;;;;4.07;2.97;;;;;;;4.86;50.85;99947.28;5063283;28;20052;-81
2021/04/27 04:38:51;;;;;;;6.15;3.30;;;;;;;4.88;51.21;99959.41;5081687;28;20104;-81
2021/04/27 04:41:19;;;;;;;4.80;3.00;;;;;;;4.78;50.87;99937.00;5086425;28;20037;-81
2021/04/27 04:43:46;;;;;;;6.13;2.97;;;;;;;4.93;50.96;99957.50;5074020;28;20068;-82
2021/04/27 04:46:12;;;;;;;4.70;3.20;;;;;;;4.97;51.18;99960.91;5083167;28;20072;-80
2021/04/27 04:48:39;;;;;;;5.53;2.60;;;;;;;5.02;50.80;99955.53;5081712;28;20068;-81
2021/04/27 04:51:06;;;;;;;4.57;3.15;;;;;;;5.02;50.38;99948.50;5095272;28;20119;-80
2021/04/27 04:53:32;;;;;;;3.58;2.72;;;;;;;5.09;50.62;99955.25;5080328;28;20151;-80
2021/04/27 04:56:00;;;;;;;4.03;2.97;;;;;;;5.11;50.44;99957.84;5094290;28;20110;-80
2021/04/27 04:58:27;;;;;;;7.97;3.40;;;;;;;5.08;50.28;99958.78;5096660;28;20082;-79
2021/04/27 05:00:54;;;;;;;5.45;3.30;;;;;;;5.10;50.09;99954.38;5091973;28;20053;-79
2021/04/27 05:03:29;;;;;;;5.70;3.20;;;;;;;5.20;49.77;99954.91;5087922;28;20041;-80
2021/04/27 05:05:55;;;;;;;5.15;3.08;;;;;;;5.29;49.65;99944.13;5086710;28;20048;-79
2021/04/27 05:08:32;;;;;;;7.00;3.35;;;;;;;5.49;49.44;99965.34;5090258;28;20052;-78
2021/04/27 05:11:02;;;;;;;6.82;2.92;;;;;;;5.60;48.54;99965.00;5087506;28;20058;-79
2021/04/27 05:13:29;;;;;;;5.70;2.97;;;;;;;5.69;47.53;99967.28;5082670;28;20048;-80
2021/04/27 05:15:56;;;;;;;6.93;2.83;;;;;;;5.79;47.67;99960.84;5082422;28;20682;-80
2021/04/27 05:18:23;;;;;;;4.18;3.50;;;;;;;5.98;47.85;99964.53;5086163;28;20040;-79
2021/04/27 05:20:50;;;;;;;5.57;2.75;;;;;;;6.09;46.62;99965.97;5087037;28;20539;-79
2021/04/27 05:23:16;;;;;;;6.90;3.03;;;;;;;6.14;46.67;99958.78;5088445;28;20051;-81
2021/04/27 05:25:42;;;;;;;3.10;2.80;;;;;;;6.19;47.19;99956.81;5089916;28;20040;-81
2021/04/27 05:28:09;;;;;;;5.10;2.65;;;;;;;6.29;46.73;99963.47;5069185;28;20076;-81
2021/04/27 05:30:38;;;;;;;5.72;3.33;;;;;;;6.37;46.53;99971.06;5090333;28;20060;-80
2021/04/27 05:33:04;;;;;;;7.07;3.38;;;;;;;6.36;46.16;99962.31;5094505;28;20045;-81
2021/04/27 05:35:35;;;;;;;4.30;3.33;;;;;;;6.43;47.26;99961.19;5091282;28;20139;-79
2021/04/27 05:38:01;;;;;;;4.28;2.88;;;;;;;6.50;45.72;99956.56;5090764;28;20094;-78
2021/04/27 05:40:27;;;;;;;3.80;2.65;;;;;;;6.43;46.09;99950.69;5093553;28;20104;-79
2021/04/27 05:42:55;;;;;;;7.68;2.92;;;;;;;6.41;46.06;99955.13;5066025;28;20071;-81
2021/04/27 05:45:23;;;;;;;3.50;2.95;;;;;;;6.41;44.94;99957.78;5096267;28;20062;-78
2021/04/27 05:47:50;;;;;;;5.50;3.38;;;;;;;6.51;45.80;99956.50;5082108;28;20086;-80
2021/04/27 05:50:16;;;;;;;6.35;2.72;;;;;;;6.68;45.64;99956.72;5094881;28;20044;-80
2021/04/27 05:52:45;;;;;;;4.35;3.00;;;;;;;6.87;44.92;99962.16;5091250;28;20037;-82
2021/04/27 05:55:11;;;;;;;3.92;3.10;;;;;;;7.02;45.04;99964.19;5089843;28;20040;-81
2021/04/27 05:57:38;;;;;;;6.88;2.70;;;;;;;7.19;44.84;99958.25;5086635;28;20055;-80
2021/04/27 06:00:07;;;;;;;3.45;2.53;;;;;;;7.29;43.69;99954.31;5075863;28;20098;-80
2021/04/27 06:02:33;;;;;;;5.38;3.00;;;;;;;7.45;43.54;99954.53;5078744;28;20063;-82
2021/04/27 06:05:04;;;;;;;6.10;2.60;;;;;;;7.56;42.85;99959.38;5079760;28;20095;-79
2021/04/27 06:07:32;;;;;;;8.27;3.30;;;;;;;7.64;42.89;99968.69;5081673;28;20049;-81
2021/04/27 06:09:59;;;;;;;6.20;2.90;;;;;;;7.60;42.78;99966.22;5077619;28;20056;-81
2021/04/27 06:12:27;;;;;;;7.78;2.83;;;;;;;7.51;42.55;99954.31;5057251;28;20422;-81
2021/04/27 06:14:54;;;;;;;12.13;2.75;;;;;;;7.48;42.70;99951.78;5080563;28;20075;-81
2021/04/27 06:17:20;;;;;;;5.43;2.85;;;;;;;7.69;42.15;99957.97;5080953;28;20063;-81
2021/04/27 06:19:46;;;;;;;5.07;2.33;;;;;;;8.56;41.80;99949.72;5083374;28;20044;-80
2021/04/27 06:22:14;;;;;;;5.90;2.53;;;;;;;10.96;36.70;99946.34;5085747;28;20041;-80
2021/04/27 06:24:40;;;;;;;3.78;2.70;;;;;;;12.95;33.19;99947.66;5080363;28;20207;-81
2021/04/27 06:27:17;;;;;;;3.97;2.30;;;;;;;14.99;28.60;99937.25;5080373;28;20048;-82
2021/04/27 06:29:48;;;;;;;5.30;2.40;;;;;;;15.52;27.25;99937.81;5080539;28;20106;-81
2021/04/27 06:32:16;;;;;;;6.88;2.22;;;;;;;16.46;25.74;99937.72;5081304;28;20051;-80
2021/04/27 06:34:42;;;;;;;3.97;2.70;;;;;;;17.17;24.73;99939.16;5085602;28;20055;-79
2021/04/27 06:37:09;;;;;;;4.72;2.30;;;;;;;17.06;24.69;99934.69;5088024;28;20048;-79
2021/04/27 06:39:39;;;;;;;5.72;2.50;;;;;;;17.57;23.99;99930.53;5087320;28;20048;-79
2021/04/27 06:42:06;;;;;;;8.02;2.63;;;;;;;18.20;23.09;99938.53;5090603;28;20521;-79
2021/04/27 06:44:34;;;;;;;5.13;2.35;;;;;;;18.96;22.14;99935.50;5086531;28;20032;-82
2021/04/27 06:47:06;;;;;;;7.63;2.50;;;;;;;17.80;23.13;99934.84;5072454;28;20051;-81
2021/04/27 06:49:33;;;;;;;;;;;;;;;17.69;23.14;99934.91;5089407;28;20101;-82
2021/04/27 06:52:05;;;;;;;3.58;2.33;;;;;;;18.05;22.69;99931.78;5078538;28;19931;-81
2021/04/27 06:54:34;;;;;;;4.43;2.20;;;;;;;17.99;22.24;99936.81;5069084;28;20041;-81
2021/04/27 06:57:01;;;;;;;4.53;2.15;;;;;;;17.90;22.77;99932.25;5076083;28;20072;-79
2021/04/27 06:59:37;;;;;;;3.63;2.08;;;;;;;18.33;22.78;99924.06;5069897;28;20514;-80
2021/04/27 07:02:05;;;;;;;3.50;2.10;;;;;;;18.68;21.95;99929.06;5071032;28;20047;-80
2021/04/27 07:04:38;;;;;;;3.35;2.25;;;;;;;18.97;21.82;99926.47;5083373;28;20040;-80
2021/04/27 07:07:06;;;;;;;2.95;2.15;;;;;;;18.80;22.14;99933.34;5093040;28;20040;-81
2021/04/27 07:09:34;;;;;;;3.75;2.30;;;;;;;18.99;21.54;99933.41;5090834;28;20036;-80
2021/04/27 07:12:01;;;;;;;3.08;1.98;;;;;;;18.79;20.73;99924.44;5085507;28;20076;-79
2021/04/27 07:14:27;;;;;;;3.22;1.98;;;;;;;18.03;21.93;99919.50;5079569;28;20135;-80
2021/04/27 07:16:55;;;;;;;3.08;1.98;;;;;;;18.06;22.08;99921.94;5077462;28;20056;-81
2021/04/27 07:19:23;;;;;;;8.40;2.85;;;;;;;18.67;22.10;99916.63;5080560;28;20045;-80
2021/04/27 07:21:52;;;;;;;4.78;2.22;;;;;;;18.90;20.69;99908.22;5081912;28;20131;-79
2021/04/27 07:24:20;;;;;;;106.22;15.65;;;;;;;19.26;21.86;99916.66;5088049;28;20048;-80
2021/04/27 07:26:46;;;;;;;14.38;5.80;;;;;;;19.77;21.10;99913.75;5096126;28;20068;-80
2021/04/27 07:29:14;;;;;;;5.97;1.98;;;;;;;20.06;19.88;99907.50;5080216;28;20049;-79
2021/04/27 07:31:43;;;;;;;3.67;2.33;;;;;;;20.01;20.51;99915.97;5056323;28;20080;-79
2021/04/27 07:34:09;;;;;;;4.80;2.20;;;;;;;20.21;20.93;99917.66;5084556;28;20091;-79
2021/04/27 07:36:36;;;;;;;4.97;2.00;;;;;;;20.41;20.48;99907.72;5076636;28;20049;-80
2021/04/27 07:39:07;;;;;;;4.57;2.75;;;;;;;19.48;21.22;99910.19;5079581;28;20052;-81
2021/04/27 07:41:33;;;;;;;3.45;1.83;;;;;;;19.74;20.74;99911.34;5082394;28;20044;-81
2021/04/27 07:44:00;;;;;;;4.22;2.08;;;;;;;20.00;20.63;99910.75;5084356;28;20056;-81
2021/04/27 07:46:27;;;;;;;2.83;1.75;;;;;;;20.31;20.72;99904.16;5084434;28;20048;-81
2021/04/27 07:48:53;;;;;;;4.38;2.28;;;;;;;20.20;19.95;99904.34;5087642;28;20068;-80
2021/04/27 07:51:21;;;;;;;7.40;2.13;;;;;;;19.78;20.29;99887.75;5064079;28;20052;-78
2021/04/27 07:53:48;;;;;;;5.28;2.30;;;;;;;19.55;20.90;99911.34;5075465;28;20428;-80
2021/04/27 07:56:14;;;;;;;5.32;2.53;;;;;;;18.63;21.88;99894.59;5085528;28;20086;-80
2021/04/27 07:58:40;;;;;;;3.17;2.30;;;;;;;18.82;21.46;99896.50;5084168;28;20045;-80
2021/04/27 08:01:09;;;;;;;3.72;2.13;;;;;;;18.71;21.95;99901.97;5083807;28;20044;-82
2021/04/27 08:03:37;;;;;;;3.95;2.13;;;;;;;19.22;21.59;99899.13;5082039;28;20044;-81
2021/04/27 08:06:04;;;;;;;5.20;2.10;;;;;;;18.76;22.15;99889.00;5083392;28;20104;-79
2021/04/27 08:08:31;;;;;;;8.57;3.80;;;;;;;19.31;22.19;99884.03;5079259;28;20037;-81
2021/04/27 08:10:58;;;;;;;15.93;3.00;;;;;;;19.85;21.31;99887.00;5075791;28;20052;-81
2021/04/27 08:13:24;;;;;;;6.53;2.17;;;;;;;20.04;20.72;99890.66;5081640;28;20044;-81
2021/04/27 08:15:50;;;;;;;4.45;2.42;;;;;;;19.40;21.40;99899.28;5081833;28;20059;-84
2021/04/27 08:18:18;;;;;;;3.85;2.10;;;;;;;19.21;21.47;99886.69;5073023;28;20489;-80
2021/04/27 08:20:51;;;;;;;4.65;2.10;;;;;;;18.58;22.15;99880.69;5061139;28;20090;-82
2021/04/27 08:23:20;;;;;;;10.40;3.20;;;;;;;18.26;23.21;99877.34;5081951;28;20053;-80
2021/04/27 08:25:57;;;;;;;8.43;2.63;;;;;;;18.84;22.62;99881.13;5071263;28;20083;-81
2021/04/27 08:28:24;;;;;;;6.25;2.70;;;;;;;18.87;22.67;99884.38;5089573;28;20037;-81
2021/04/27 08:30:52;;;;;;;3.97;2.47;;;;;;;18.67;21.36;99884.47;5085745;28;20060;-84
2021/04/27 08:33:20;;;;;;;3.40;2.50;;;;;;;17.61;22.07;99884.66;5099271;28;20048;-81
2021/04/27 08:35:49;;;;;;;5.40;2.47;;;;;;;16.26;23.97;99877.81;5084785;28;20056;-85
2021/04/27 08:38:15;;;;;;;4.32;2.70;;;;;;;15.21;25.86;99874.38;5072560;28;20041;-81
2021/04/27 08:40:41;;;;;;;5.22;2.72;;;;;;;14.62;26.69;99876.94;5082333;28;20048;-81
2021/04/27 08:43:09;;;;;;;5.53;2.90;;;;;;;14.23;28.03;99873.41;5083960;28;20051;-81
2021/04/27 08:45:40;;;;;;;3.33;2.40;;;;;;;13.92;27.44;99869.38;5080443;28;20044;-81
2021/04/27 08:48:12;;;;;;;4.13;3.03;;;;;;;13.55;28.42;99871.03;5084605;28;20048;-80
2021/04/27 08:50:39;;;;;;;4.13;2.63;;;;;;;13.29;28.56;99879.91;5085112;28;20048;-81
2021/04/27 08:53:07;;;;;;;4.47;2.78;;;;;;;13.05;29.13;99870.88;5081252;28;20067;-81
2021/04/27 08:55:36;;;;;;;6.20;2.90;;;;;;;12.94;29.50;99863.56;5081965;28;20112;-80
2021/04/27 08:58:11;;;;;;;4.22;2.92;;;;;;;12.92;29.28;99871.63;5081947;28;20053;-80
2021/04/27 09:00:38;;;;;;;5.40;3.00;;;;;;;12.71;29.46;99874.84;5076907;28;20063;-80
2021/04/27 09:03:09;;;;;;;4.75;2.95;;;;;;;12.37;30.29;99862.84;5070568;28;20435;-80
2021/04/27 09:05:40;;;;;;;5.03;3.10;;;;;;;12.35;30.35;99870.03;5083247;28;20052;-80
2021/04/27 09:08:35;;;;;;;3.20;2.70;;;;;;;12.30;30.52;99857.91;5093613;28;20048;-81
2021/04/27 09:11:01;;;;;;;4.65;2.95;;;;;;;12.51;30.81;99860.16;5087388;28;20045;-81
2021/04/27 09:13:30;;;;;;;6.22;3.13;;;;;;;12.70;31.11;99852.75;5078925;28;20059;-81
2021/04/27 09:15:58;;;;;;;7.57;3.03;;;;;;;12.65;30.43;99838.88;5062961;28;20053;-82
2021/04/27 09:18:32;;;;;;;6.22;2.80;;;;;;;12.53;30.47;99851.16;5081373;28;20072;-81
2021/04/27 09:21:05;;;;;;;6.60;3.10;;;;;;;12.50;31.40;99846.03;5070465;28;20406;-80
2021/04/27 09:23:44;;;;;;;4.30;2.80;;;;;;;12.60;30.71;99844.47;5078667;28;20487;-82
2021/04/27 09:26:19;;;;;;;4.75;2.83;;;;;;;12.64;30.77;99842.50;5067069;28;20051;-83
2021/04/27 09:28:53;;;;;;;5.28;2.80;;;;;;;12.65;31.22;99836.22;5085917;28;20087;-80
2021/04/27 09:31:33;;;;;;;6.00;2.90;;;;;;;12.69;30.87;99831.59;5070794;28;20119;-81
2021/04/27 09:34:24;;;;;;;4.60;3.05;;;;;;;12.77;30.63;99846.06;5062896;28;20086;-80
2021/04/27 09:36:54;;;;;;;5.75;3.00;;;;;;;12.75;30.73;99831.19;5079055;28;20052;-80
2021/04/27 09:39:40;;;;;;;4.00;3.00;;;;;;;12.75;30.93;99829.38;5093840;28;20048;-80
2021/04/27 09:42:17;;;;;;;4.93;3.00;;;;;;;12.87;31.80;99828.59;5092921;28;20083;-81
2021/04/27 09:44:55;;;;;;;5.32;3.20;;;;;;;12.92;30.44;99813.16;5083338;28;20048;-81
2021/04/27 09:47:33;;;;;;;4.07;3.03;;;;;;;12.95;30.38;99820.94;5079473;28;20086;-81
2021/04/27 09:50:08;;;;;;;5.50;3.05;;;;;;;12.98;31.12;99803.97;5087558;28;20055;-80
2021/04/27 09:52:47;;;;;;;4.43;3.35;;;;;;;13.17;30.74;99803.63;5096489;28;20127;-81
2021/04/27 09:55:18;;;;;;;5.50;3.20;;;;;;;13.33;30.71;99791.00;5091135;28;20062;-80
2021/04/27 09:57:53;;;;;;;8.38;3.30;;;;;;;13.46;30.03;99793.66;5090899;28;20048;-81
2021/04/27 10:00:39;;;;;;;5.13;3.40;;;;;;;13.34;29.90;99798.03;5089161;28;20041;-79
2021/04/27 10:03:12;;;;;;;5.68;3.40;;;;;;;13.40;30.63;99780.78;5094843;28;20029;-80
2021/04/27 10:05:46;;;;;;;3.65;3.17;;;;;;;13.49;29.58;99781.03;5095185;28;20062;-81
2021/04/27 10:08:15;;;;;;;6.43;4.00;;;;;;;13.51;29.48;99776.44;5094744;28;20048;-81
2021/04/27 10:10:41;;;;;;;7.05;3.92;;;;;;;13.51;28.88;99773.78;5097470;28;20044;-81
2021/04/27 10:13:10;;;;;;;5.85;3.63;;;;;;;13.57;29.21;99784.00;5108330;28;20033;-81
2021/04/27 10:15:39;;;;;;;5.07;3.83;;;;;;;13.68;28.41;99781.47;5096983;28;20071;-82
2021/04/27 10:18:08;;;;;;;4.65;3.58;;;;;;;13.79;28.80;99783.38;5085813;28;20060;-81
2021/04/27 10:20:36;;;;;;;6.22;3.78;;;;;;;13.91;28.88;99774.50;5098389;28;20096;-80
2021/04/27 10:23:09;;;;;;;7.95;3.75;;;;;;;13.95;28.66;99772.50;5098634;28;20043;-81
2021/04/27 10:25:38;;;;;;;5.93;3.65;;;;;;;13.98;28.83;99766.97;5093888;28;20032;-81
2021/04/27 10:28:08;;;;;;;4.57;3.38;;;;;;;14.12;28.53;99764.16;5092196;28;20048;-81
2021/04/27 10:30:44;;;;;;;4.85;3.55;;;;;;;14.24;28.63;99768.59;5094335;28;20029;-79
2021/04/27 10:33:15;;;;;;;7.22;3.53;;;;;;;14.40;27.98;99763.03;5091376;28;20117;-80
2021/04/27 10:36:07;;;;;;;6.38;4.00;;;;;;;14.57;27.99;99761.81;5088967;28;20048;-81
2021/04/27 10:38:46;;;;;;;6.07;3.72;;;;;;;14.75;27.89;99757.81;5093837;28;20051;-81
2021/04/27 10:41:53;;;;;;;6.25;3.88;;;;;;;14.64;27.42;99755.06;5093899;28;20039;-82
2021/04/27 10:44:22;;;;;;;7.78;4.47;;;;;;;14.67;27.35;99746.84;5087864;28;20032;-82
2021/04/27 10:47:03;;;;;;;7.45;3.95;;;;;;;14.86;27.94;99738.34;5089953;28;20047;-81
2021/04/27 10:49:45;;;;;;;9.38;3.70;;;;;;;15.04;27.36;99739.63;5089275;28;20041;-82
2021/04/27 10:52:34;;;;;;;6.70;4.43;;;;;;;15.03;26.78;99733.44;5093339;28;20048;-82
2021/04/27 10:55:27;;;;;;;5.82;4.10;;;;;;;14.99;27.30;99723.97;5092099;28;20052;-81
2021/04/27 10:57:58;;;;;;;6.18;4.35;;;;;;;15.13;27.74;99727.38;5089725;28;20052;-82
2021/04/27 11:00:47;;;;;;;5.47;4.35;;;;;;;15.25;26.34;99724.66;5088723;28;20143;-82
2021/04/27 11:03:24;;;;;;;9.35;4.68;;;;;;;15.34;26.33;99723.09;5089881;28;20029;-82
2021/04/27 11:06:08;;;;;;;6.90;4.30;;;;;;;15.57;26.26;99718.69;5090495;28;20036;-80
2021/04/27 11:08:49;;;;;;;7.72;4.55;;;;;;;15.54;25.86;99722.41;5091369;28;20048;-82
2021/04/27 11:11:33;;;;;;;8.27;4.28;;;;;;;15.50;26.58;99707.59;5076945;28;20160;-80
2021/04/27 11:14:20;;;;;;;9.95;4.30;;;;;;;15.56;27.08;99709.81;5093055;28;20028;-80
2021/04/27 11:16:54;;;;;;;6.35;3.90;;;;;;;15.60;26.23;99708.59;5062705;28;20033;-79
2021/04/27 11:19:28;;;;;;;6.55;4.05;;;;;;;15.76;26.21;99700.22;5085934;28;20044;-79
2021/04/27 11:22:15;;;;;;;7.38;3.85;;;;;;;15.85;25.33;99701.31;5092207;28;20079;-79
2021/04/27 11:24:45;;;;;;;7.20;4.00;;;;;;;15.86;25.53;99695.88;5068336;28;20539;-80
2021/04/27 11:27:39;;;;;;;7.78;3.90;;;;;;;15.95;25.52;99699.59;5092146;28;20063;-82
2021/04/27 11:30:07;;;;;;;4.82;3.67;;;;;;;15.96;25.48;99691.47;5089263;28;20047;-82
2021/04/27 11:32:41;;;;;;;5.68;3.55;;;;;;;16.05;26.04;99690.75;5091625;28;20028;-81
2021/04/27 11:35:21;;;;;;;5.97;4.55;;;;;;;16.10;24.18;99685.03;5087766;28;20059;-82
2021/04/27 11:37:59;;;;;;;5.72;3.85;;;;;;;16.00;24.26;99676.91;5088160;28;20087;-82
2021/04/27 11:40:29;;;;;;;6.57;4.40;;;;;;;15.97;24.77;99677.16;5071502;28;20040;-80
2021/04/27 11:43:09;;;;;;;6.47;3.88;;;;;;;16.12;24.39;99669.72;5094781;28;20036;-80
2021/04/27 11:45:39;;;;;;;8.90;4.30;;;;;;;16.23;24.86;99669.69;5090584;28;20115;-80
2021/04/27 11:48:32;;;;;;;7.05;4.32;;;;;;;16.19;23.81;99673.59;5091516;28;20041;-80
2021/04/27 11:50:59;;;;;;;9.35;3.85;;;;;;;16.02;23.70;99666.09;5083743;28;20049;-79